Time;durP1;ratioP1;P1;durP2;ratioP2;P2;SDS_P1;SDS_P2;PMS_P1;PMS_P2;Temp;Humidity;BMP_temperature;BMP_pressure;BME280_temperature;BME280_humidity;BME280_pressure;Samples;Min_cycle;Max_cycle;Signal;HPM_P1;HPM_P2
2022/11/12 00:01:58;;;;;;;8.55;5.90;;;;;;;21.68;57.64;101852.97;21010335;27;20040;-77
2022/11/12 00:11:59;;;;;;;9.85;6.20;;;;;;;21.56;57.24;101837.81;21016414;28;20041;-79
2022/11/12 00:21:59;;;;;;;9.77;6.00;;;;;;;21.51;57.06;101830.16;21011784;28;20107;-79
2022/11/12 00:31:59;;;;;;;9.27;6.55;;;;;;;21.48;56.71;101814.50;20998019;27;21171;-78
2022/11/12 00:42:00;;;;;;;9.55;5.95;;;;;;;21.46;57.46;101819.03;21012279;28;20044;-79
2022/11/12 00:52:01;;;;;;;9.52;6.55;;;;;;;21.44;56.89;101811.19;20993285;28;20045;-77
2022/11/12 01:02:01;;;;;;;10.75;6.35;;;;;;;21.42;57.59;101809.56;20998065;28;20047;-79
2022/11/12 01:12:02;;;;;;;8.57;5.95;;;;;;;21.40;57.69;101800.94;21001601;28;20045;-79
2022/11/12 01:22:02;;;;;;;7.95;5.93;;;;;;;21.39;57.18;101799.22;20967735;27;20384;-79
2022/11/12 01:32:02;;;;;;;7.60;5.72;;;;;;;21.42;56.97;101789.38;21003755;28;20056;-79
2022/11/12 01:42:03;;;;;;;8.73;6.25;;;;;;;21.41;57.18;101787.66;20991008;28;20036;-79
2022/11/12 01:52:13;;;;;;;8.45;5.75;;;;;;;21.39;56.95;101786.88;21002115;28;20063;-79
2022/11/12 02:02:14;;;;;;;8.40;5.78;;;;;;;21.36;56.93;101779.19;20990390;28;20048;-79
2022/11/12 02:13:56;;;;;;;8.63;5.90;;;;;;;21.35;57.31;101774.84;21003219;28;20054;-79
2022/11/12 02:22:36;;;;;;;7.97;5.70;;;;;;;21.38;57.36;101764.09;21001797;28;20115;-79
2022/11/12 02:32:36;;;;;;;8.77;6.30;;;;;;;21.36;56.92;101765.13;20999589;28;20410;-79
2022/11/12 02:42:37;;;;;;;6.70;5.47;;;;;;;21.35;56.78;101763.44;21006394;27;20044;-78
2022/11/12 02:52:38;;;;;;;10.05;6.53;;;;;;;21.29;57.22;101777.81;20997335;28;20029;-78
2022/11/12 03:02:42;;;;;;;7.45;5.80;;;;;;;21.27;57.08;101769.13;20994497;28;20113;-77
2022/11/12 03:12:42;;;;;;;6.75;5.15;;;;;;;21.28;57.16;101778.75;20991039;28;20506;-79
2022/11/12 03:22:55;;;;;;;9.23;5.85;;;;;;;21.25;57.00;101790.31;20981391;28;20041;-78
2022/11/12 03:32:55;;;;;;;6.55;5.40;;;;;;;21.23;56.95;101794.81;20992853;28;20055;-78
2022/11/12 03:42:56;;;;;;;8.63;5.82;;;;;;;21.22;57.14;101795.72;20992387;28;20041;-78
2022/11/12 03:52:58;;;;;;;7.53;5.75;;;;;;;21.25;57.04;101789.44;21002640;28;20040;-78
2022/11/12 04:02:59;;;;;;;7.32;5.60;;;;;;;21.23;57.01;101786.91;20995324;28;20048;-78
2022/11/12 04:23:18;;;;;;;9.55;5.55;;;;;;;21.27;56.87;101782.31;21007426;28;20040;-78
2022/11/12 04:33:19;;;;;;;9.63;5.72;;;;;;;21.23;56.67;101788.69;21008991;28;20043;-77
2022/11/12 04:53:38;;;;;;;8.30;5.57;;;;;;;21.20;56.69;101784.44;21005603;28;20119;-78
2022/11/12 05:03:38;;;;;;;7.72;5.90;;;;;;;21.19;56.48;101795.03;21017195;27;20050;-77
2022/11/12 05:13:39;;;;;;;7.10;5.35;;;;;;;21.27;57.28;101791.03;21003886;28;20114;-79
2022/11/12 05:23:39;;;;;;;7.25;5.38;;;;;;;21.29;57.30;101804.16;20990508;28;20075;-79
2022/11/12 05:33:39;;;;;;;6.78;5.30;;;;;;;21.37;56.84;101801.09;20996485;28;20040;-76
2022/11/12 05:43:40;;;;;;;6.97;5.20;;;;;;;21.44;56.99;101802.44;21000552;28;20062;-77
2022/11/12 05:53:41;;;;;;;11.15;5.30;;;;;;;21.57;57.96;101811.41;20984626;28;20032;-78
2022/11/12 06:03:41;;;;;;;9.32;4.53;;;;;;;21.68;57.84;101815.19;20983021;28;20074;-77
2022/11/12 06:13:42;;;;;;;7.68;4.78;;;;;;;21.74;57.88;101830.69;20996566;28;20147;-77
2022/11/12 06:23:42;;;;;;;5.72;4.47;;;;;;;21.77;56.78;101848.97;20998173;28;20040;-83
2022/11/12 06:33:44;;;;;;;6.57;5.18;;;;;;;21.80;57.36;101856.72;20998885;28;20048;-84
2022/11/12 06:43:44;;;;;;;6.93;4.53;;;;;;;21.89;57.90;101865.88;21003919;28;20041;-80
2022/11/12 06:53:45;;;;;;;7.85;5.07;;;;;;;21.96;57.96;101871.63;20993041;28;20437;-83
2022/11/12 07:03:49;;;;;;;7.57;4.90;;;;;;;22.00;58.74;101876.66;21016473;28;20041;-80
2022/11/12 07:13:50;;;;;;;8.45;4.90;;;;;;;22.05;57.91;101892.22;21000767;28;20074;-81
2022/11/12 07:23:50;;;;;;;9.15;4.82;;;;;;;22.07;57.88;101883.28;21002543;28;20041;-78
2022/11/12 07:33:51;;;;;;;17.98;5.28;;;;;;;22.11;57.81;101888.38;21009938;28;20140;-77
2022/11/12 07:43:52;;;;;;;8.35;4.68;;;;;;;22.15;58.11;101881.97;21018688;28;20056;-78
2022/11/12 07:53:55;;;;;;;8.38;6.00;;;;;;;22.18;57.93;101887.06;21024919;28;20039;-81
2022/11/12 08:03:56;;;;;;;8.25;5.60;;;;;;;22.20;57.67;101899.25;21021158;28;20525;-81
2022/11/12 08:13:57;;;;;;;9.25;5.47;;;;;;;22.21;58.06;101916.75;21021759;28;20131;-82
2022/11/12 08:23:57;;;;;;;11.57;6.30;;;;;;;22.20;57.42;101915.09;20972769;28;20106;-77
2022/11/12 08:33:58;;;;;;;14.48;9.75;;;;;;;21.91;53.15;101917.59;20897679;28;20043;-80
2022/11/12 08:43:59;;;;;;;16.40;7.78;;;;;;;21.97;54.16;101921.69;20905501;28;21599;-84
2022/11/12 08:54:00;;;;;;;15.55;8.43;;;;;;;21.97;55.08;101929.59;20915043;28;20473;-80
2022/11/12 09:04:00;;;;;;;17.42;9.10;;;;;;;21.96;54.03;101948.13;20990756;28;20131;-78
2022/11/12 09:14:00;;;;;;;16.35;9.27;;;;;;;21.94;54.57;101955.28;21005059;28;20127;-81
2022/11/12 09:24:01;;;;;;;16.58;10.50;;;;;;;21.94;54.59;101966.66;20993604;28;20040;-80
2022/11/12 09:34:02;;;;;;;15.90;9.63;;;;;;;21.89;55.23;101974.00;21013560;28;20035;-77
2022/11/12 09:44:08;;;;;;;17.38;10.82;;;;;;;21.89;55.29;101966.09;21004641;28;20055;-77
2022/11/12 09:54:26;;;;;;;13.82;9.52;;;;;;;21.93;55.03;101972.03;20992247;28;20040;-79
2022/11/12 10:04:38;;;;;;;12.90;8.75;;;;;;;21.97;55.50;101976.19;20993258;28;20136;-78
2022/11/12 10:25:26;;;;;;;16.33;8.07;;;;;;;22.23;55.55;101967.66;20994218;28;20135;-78
2022/11/12 10:35:27;;;;;;;12.85;8.43;;;;;;;22.34;55.79;101961.78;20992531;28;20049;-78
2022/11/12 10:45:28;;;;;;;12.18;8.20;;;;;;;22.43;55.32;101949.03;20991565;28;20096;-77
2022/11/12 10:55:35;;;;;;;13.30;8.23;;;;;;;22.44;55.36;101956.84;20985973;28;20066;-78
2022/11/12 11:05:50;;;;;;;11.40;8.43;;;;;;;22.56;55.74;101939.47;20987510;28;20059;-78
2022/11/12 11:15:59;;;;;;;11.52;8.20;;;;;;;22.64;55.51;101921.38;21005800;28;20074;-78
2022/11/12 11:26:14;;;;;;;15.43;8.75;;;;;;;22.69;55.71;101923.72;20991467;28;20040;-80
2022/11/12 11:36:53;;;;;;;9.75;7.65;;;;;;;22.71;55.50;101917.41;21018610;28;20059;-84
2022/11/12 11:46:57;;;;;;;10.55;7.22;;;;;;;22.84;55.57;101911.41;21000833;28;20105;-81
2022/11/12 11:57:00;;;;;;;13.63;7.40;;;;;;;22.87;55.93;101905.94;21008665;28;20529;-80
2022/11/12 12:07:28;;;;;;;18.75;7.28;;;;;;;22.82;55.67;101900.91;21021344;28;20093;-79
2022/11/12 12:17:56;;;;;;;12.23;7.10;;;;;;;22.78;55.31;101878.28;20975137;28;20092;-77
2022/11/12 12:28:03;;;;;;;15.73;7.85;;;;;;;22.78;56.28;101875.66;20945278;27;20408;-79
2022/11/12 12:38:14;;;;;;;16.52;7.80;;;;;;;22.74;56.72;101868.88;20995095;28;20165;-78
2022/11/12 12:48:18;;;;;;;12.87;7.40;;;;;;;22.69;57.25;101871.78;20987076;28;20058;-77
2022/11/12 12:58:29;;;;;;;10.43;7.28;;;;;;;22.66;57.38;101871.13;21007720;28;20209;-79
2022/11/12 13:08:35;;;;;;;13.30;6.80;;;;;;;22.61;57.27;101863.47;20994701;28;20050;-78
2022/11/12 13:18:42;;;;;;;10.43;7.07;;;;;;;22.55;57.17;101864.66;20941111;28;20041;-78
2022/11/12 13:29:22;;;;;;;10.57;6.50;;;;;;;22.48;57.24;101863.34;20912581;28;20051;-79
2022/11/12 13:39:23;;;;;;;9.00;6.68;;;;;;;22.40;56.99;101870.88;20916242;28;20048;-78
2022/11/12 13:49:24;;;;;;;8.88;6.15;;;;;;;22.35;56.86;101878.16;20995567;28;20125;-78
2022/11/12 13:59:25;;;;;;;9.82;6.28;;;;;;;22.34;56.92;101871.22;21005566;28;20035;-77
2022/11/12 14:09:41;;;;;;;7.72;5.80;;;;;;;22.36;57.29;101864.91;21005692;27;20131;-76
2022/11/12 14:20:04;;;;;;;9.10;6.10;;;;;;;22.33;57.58;101878.25;20998142;28;20067;-79
2022/11/12 14:30:04;;;;;;;;;;;;;;;22.35;57.45;101867.59;21007791;27;20037;-76
2022/11/12 14:40:15;;;;;;;9.07;6.57;;;;;;;22.32;57.60;101870.44;20984724;28;19951;-77
2022/11/12 14:50:25;;;;;;;17.85;8.95;;;;;;;22.11;51.87;101873.41;20989646;28;20861;-76
2022/11/12 15:00:30;;;;;;;12.23;7.90;;;;;;;22.16;53.79;101867.84;20971906;28;20046;-76
2022/11/12 15:10:37;;;;;;;10.13;6.95;;;;;;;22.17;55.58;101872.19;20963560;28;20744;-75
2022/11/12 15:20:38;;;;;;;10.10;6.68;;;;;;;22.22;56.25;101881.53;20967287;28;20056;-75
2022/11/12 15:30:38;;;;;;;13.35;6.53;;;;;;;22.19;56.59;101884.38;20999673;28;20044;-75
2022/11/12 15:40:44;;;;;;;13.48;6.82;;;;;;;22.22;56.79;101888.59;20963865;28;20059;-75
2022/11/12 15:50:45;;;;;;;16.63;7.88;;;;;;;22.19;56.75;101902.81;20956003;28;20105;-74
2022/11/12 16:00:46;;;;;;;11.60;7.65;;;;;;;22.18;57.50;101905.53;20952920;28;20052;-75
2022/11/12 16:10:47;;;;;;;13.07;7.68;;;;;;;22.20;57.87;101922.13;20960835;28;20051;-75
2022/11/12 16:20:48;;;;;;;11.38;8.38;;;;;;;22.21;57.75;101914.13;20962329;28;20127;-75
2022/11/12 16:30:49;;;;;;;13.93;9.05;;;;;;;22.21;58.09;101910.66;20991505;28;20041;-77
2022/11/12 16:40:50;;;;;;;12.30;9.40;;;;;;;22.19;58.09;101910.75;20967908;28;20036;-76
2022/11/12 16:50:50;;;;;;;19.17;10.17;;;;;;;22.14;58.16;101904.91;20981004;28;20041;-77
2022/11/12 17:00:51;;;;;;;13.57;9.02;;;;;;;22.18;58.22;101905.53;20966883;28;20815;-77
2022/11/12 17:10:51;;;;;;;15.32;9.80;;;;;;;22.17;58.39;101914.41;20982936;28;20048;-75
2022/11/12 17:20:52;;;;;;;14.45;9.27;;;;;;;22.18;58.58;101900.25;20978455;28;20036;-78
2022/11/12 17:31:01;;;;;;;19.80;9.43;;;;;;;22.17;58.33;101902.06;20911676;28;22433;-78
2022/11/12 17:41:02;;;;;;;21.27;10.25;;;;;;;22.09;57.52;101898.16;20902152;28;20052;-79
2022/11/12 17:51:12;;;;;;;14.32;9.50;;;;;;;22.06;57.53;101904.47;20961449;28;20074;-79
2022/11/12 18:01:19;;;;;;;12.20;8.30;;;;;;;22.04;57.73;101904.53;20955666;28;20054;-75
2022/11/12 18:11:20;;;;;;;16.00;8.32;;;;;;;22.03;57.65;101900.22;20934493;28;20051;-75
2022/11/12 18:21:23;;;;;;;11.32;8.15;;;;;;;22.03;57.77;101905.50;20982623;28;20048;-76
2022/11/12 18:31:25;;;;;;;11.27;8.15;;;;;;;22.01;57.73;101909.16;20990965;27;20087;-75
2022/11/12 18:41:27;;;;;;;12.83;8.13;;;;;;;22.01;57.80;101915.28;20986934;28;20040;-80
2022/11/12 18:51:27;;;;;;;11.57;8.27;;;;;;;22.00;57.88;101923.28;20994229;28;20048;-75
2022/11/12 19:01:28;;;;;;;12.63;7.63;;;;;;;21.98;57.59;101930.44;20983794;28;20048;-75
2022/11/12 19:11:28;;;;;;;10.75;8.23;;;;;;;21.96;57.55;101927.03;20967669;28;20040;-75
2022/11/12 19:21:29;;;;;;;12.80;8.23;;;;;;;21.96;57.85;101932.28;20935065;28;20075;-75
2022/11/12 19:31:29;;;;;;;12.05;7.28;;;;;;;21.96;58.18;101942.84;20983742;28;20091;-75
2022/11/12 19:41:29;;;;;;;12.38;7.60;;;;;;;21.96;57.95;101941.06;20943668;28;21365;-76
2022/11/12 19:51:30;;;;;;;10.52;7.45;;;;;;;21.96;57.70;101953.41;20955360;28;20415;-75
2022/11/12 20:01:30;;;;;;;10.75;7.25;;;;;;;21.94;57.95;101964.03;20934838;28;20059;-75
2022/11/12 20:11:30;;;;;;;11.07;7.10;;;;;;;21.93;58.17;101974.69;20980081;28;20482;-75
2022/11/12 20:21:31;;;;;;;11.05;7.68;;;;;;;21.90;57.94;101971.25;20971412;28;20045;-76
2022/11/12 20:31:32;;;;;;;10.10;7.28;;;;;;;21.90;57.84;101962.50;20978248;28;20066;-79
2022/11/12 20:41:32;;;;;;;10.27;7.43;;;;;;;21.89;58.04;101972.19;20983294;28;20047;-80
2022/11/12 20:51:33;;;;;;;14.60;9.10;;;;;;;21.87;57.29;101966.19;20959982;28;20101;-75
2022/11/12 21:01:34;;;;;;;15.73;8.63;;;;;;;21.89;57.74;101968.72;20915970;28;20040;-76
2022/11/12 21:11:34;;;;;;;18.27;8.57;;;;;;;21.88;57.75;101962.59;20943856;28;20060;-80
2022/11/12 21:21:35;;;;;;;14.25;8.68;;;;;;;21.90;58.53;101968.63;20980880;28;20032;-78
2022/11/12 21:31:35;;;;;;;18.52;8.90;;;;;;;21.90;58.32;101957.25;20978376;28;20500;-76
2022/11/12 21:41:35;;;;;;;16.58;9.00;;;;;;;21.90;58.52;101971.25;20986481;28;20505;-76
2022/11/12 21:51:36;;;;;;;23.42;12.00;;;;;;;21.89;58.02;101959.00;20960127;28;20063;-76
2022/11/12 22:01:36;;;;;;;15.43;9.82;;;;;;;21.84;58.24;101950.50;20991606;28;20602;-76
2022/11/12 22:11:38;;;;;;;16.95;9.77;;;;;;;21.86;58.11;101953.06;21017758;28;20161;-76
2022/11/12 22:21:38;;;;;;;14.68;9.43;;;;;;;21.86;58.61;101959.19;21013434;28;20051;-77
2022/11/12 22:31:40;;;;;;;14.55;9.48;;;;;;;21.84;58.66;101960.22;20991635;28;20063;-76
2022/11/12 22:41:40;;;;;;;14.07;9.57;;;;;;;21.83;58.79;101961.16;20990429;27;20044;-76
2022/11/12 22:51:40;;;;;;;13.20;9.27;;;;;;;21.81;58.87;101952.47;21010721;28;20419;-76
2022/11/12 23:01:41;;;;;;;13.68;9.40;;;;;;;21.80;58.82;101958.66;21001539;28;20041;-76
2022/11/12 23:11:42;;;;;;;14.60;10.20;;;;;;;21.77;59.07;101956.22;21006327;28;20142;-76
2022/11/12 23:21:42;;;;;;;13.07;9.88;;;;;;;21.78;58.76;101965.84;21015170;28;20052;-76
2022/11/12 23:31:44;;;;;;;15.63;9.70;;;;;;;21.74;58.96;101963.34;20988933;28;20162;-76
2022/11/12 23:41:44;;;;;;;14.23;9.50;;;;;;;21.72;58.72;101957.31;20987904;28;20049;-77
2022/11/12 23:51:44;;;;;;;13.57;9.80;;;;;;;21.72;58.46;101967.84;20980036;28;20052;-76
